sensor_id;sensor_type;location;lat;lon;timestamp;pressure;altitude;pressure_sealevel;temperature;humidity
23176;BME280;19910;42.652;23.332;2023-05-14T00:01:15;95042.19;;;13.39;65.36
23176;BME280;19910;42.652;23.332;2023-05-14T00:03:42;95046.31;;;13.45;65.42
23176;BME280;19910;42.652;23.332;2023-05-14T00:06:09;95038.63;;;13.47;64.97
23176;BME280;19910;42.652;23.332;2023-05-14T00:08:36;95046.69;;;13.56;64.12
23176;BME280;19910;42.652;23.332;2023-05-14T00:11:03;95044.63;;;13.53;64.55
23176;BME280;19910;42.652;23.332;2023-05-14T00:13:30;95037.72;;;13.56;64.57
23176;BME280;19910;42.652;23.332;2023-05-14T00:15:57;95036.38;;;13.49;65.09
23176;BME280;19910;42.652;23.332;2023-05-14T00:18:25;95034.09;;;13.51;64.23
23176;BME280;19910;42.652;23.332;2023-05-14T00:20:52;95038.41;;;13.52;64.66
23176;BME280;19910;42.652;23.332;2023-05-14T00:23:19;95035.91;;;13.47;64.85
23176;BME280;19910;42.652;23.332;2023-05-14T00:25:46;95033.63;;;13.49;64.51
23176;BME280;19910;42.652;23.332;2023-05-14T00:28:13;95020.91;;;13.41;65.46
23176;BME280;19910;42.652;23.332;2023-05-14T00:30:40;95018.88;;;13.38;65.81
23176;BME280;19910;42.652;23.332;2023-05-14T00:33:06;95015.88;;;13.31;66.01
23176;BME280;19910;42.652;23.332;2023-05-14T00:35:35;95018.75;;;13.35;65.80
23176;BME280;19910;42.652;23.332;2023-05-14T00:38:02;95018.59;;;13.31;65.55
23176;BME280;19910;42.652;23.332;2023-05-14T00:40:29;95025.19;;;13.30;65.98
23176;BME280;19910;42.652;23.332;2023-05-14T00:42:56;95015.19;;;13.22;66.00
23176;BME280;19910;42.652;23.332;2023-05-14T00:45:23;95020.50;;;13.19;66.21
23176;BME280;19910;42.652;23.332;2023-05-14T00:47:50;95005.91;;;13.23;65.54
23176;BME280;19910;42.652;23.332;2023-05-14T00:50:17;95014.06;;;13.23;65.79
23176;BME280;19910;42.652;23.332;2023-05-14T00:52:45;95011.34;;;13.23;65.39
23176;BME280;19910;42.652;23.332;2023-05-14T00:55:14;95018.38;;;13.24;65.30
23176;BME280;19910;42.652;23.332;2023-05-14T00:57:42;94991.53;;;13.14;64.86
23176;BME280;19910;42.652;23.332;2023-05-14T01:00:09;95009.75;;;13.22;64.79
23176;BME280;19910;42.652;23.332;2023-05-14T01:02:36;94995.66;;;13.20;64.68
23176;BME280;19910;42.652;23.332;2023-05-14T01:05:03;95001.13;;;13.20;64.89
23176;BME280;19910;42.652;23.332;2023-05-14T01:07:36;95004.16;;;13.19;64.40
23176;BME280;19910;42.652;23.332;2023-05-14T01:10:09;95001.91;;;13.21;63.85
23176;BME280;19910;42.652;23.332;2023-05-14T01:12:46;95000.44;;;13.23;63.79
23176;BME280;19910;42.652;23.332;2023-05-14T01:15:21;94998.59;;;13.15;63.95
23176;BME280;19910;42.652;23.332;2023-05-14T01:17:53;94992.50;;;13.18;63.51
23176;BME280;19910;42.652;23.332;2023-05-14T01:20:20;94999.84;;;13.18;63.14
23176;BME280;19910;42.652;23.332;2023-05-14T01:22:49;95006.88;;;13.19;63.22
23176;BME280;19910;42.652;23.332;2023-05-14T01:25:16;95013.00;;;13.15;63.37
23176;BME280;19910;42.652;23.332;2023-05-14T01:27:50;95018.44;;;13.15;63.22
23176;BME280;19910;42.652;23.332;2023-05-14T01:30:24;95016.50;;;13.16;63.00
23176;BME280;19910;42.652;23.332;2023-05-14T01:32:56;95018.72;;;13.14;62.66
23176;BME280;19910;42.652;23.332;2023-05-14T01:35:26;95026.00;;;13.10;62.87
23176;BME280;19910;42.652;23.332;2023-05-14T01:37:57;95027.22;;;13.12;62.52
23176;BME280;19910;42.652;23.332;2023-05-14T01:40:25;95033.44;;;13.13;62.93
23176;BME280;19910;42.652;23.332;2023-05-14T01:42:53;95028.50;;;13.15;62.36
23176;BME280;19910;42.652;23.332;2023-05-14T01:45:21;95023.69;;;13.12;62.37
23176;BME280;19910;42.652;23.332;2023-05-14T01:47:48;95021.78;;;13.12;62.08
23176;BME280;19910;42.652;23.332;2023-05-14T01:50:15;95023.25;;;13.10;62.26
23176;BME280;19910;42.652;23.332;2023-05-14T01:52:41;95013.72;;;13.04;62.66
23176;BME280;19910;42.652;23.332;2023-05-14T01:55:10;95014.38;;;13.01;63.39
23176;BME280;19910;42.652;23.332;2023-05-14T01:57:36;95027.25;;;12.92;64.01
23176;BME280;19910;42.652;23.332;2023-05-14T02:00:04;95030.56;;;12.76;65.67
23176;BME280;19910;42.652;23.332;2023-05-14T02:02:31;95036.09;;;12.59;68.26
23176;BME280;19910;42.652;23.332;2023-05-14T02:04:58;95038.97;;;12.42;67.39
23176;BME280;19910;42.652;23.332;2023-05-14T02:07:25;95028.00;;;12.30;68.79
23176;BME280;19910;42.652;23.332;2023-05-14T02:09:51;95033.78;;;12.20;69.69
23176;BME280;19910;42.652;23.332;2023-05-14T02:12:20;95037.31;;;12.20;69.41
23176;BME280;19910;42.652;23.332;2023-05-14T02:14:46;95030.47;;;12.14;69.31
23176;BME280;19910;42.652;23.332;2023-05-14T02:17:13;95033.13;;;12.23;69.04
23176;BME280;19910;42.652;23.332;2023-05-14T02:19:41;95025.63;;;12.28;68.48
23176;BME280;19910;42.652;23.332;2023-05-14T02:22:08;95038.06;;;12.29;68.50
23176;BME280;19910;42.652;23.332;2023-05-14T02:24:35;95041.75;;;12.25;69.20
23176;BME280;19910;42.652;23.332;2023-05-14T02:27:02;95042.72;;;12.29;68.30
23176;BME280;19910;42.652;23.332;2023-05-14T02:29:30;95054.69;;;12.28;67.84
23176;BME280;19910;42.652;23.332;2023-05-14T02:31:57;95050.72;;;12.25;68.64
23176;BME280;19910;42.652;23.332;2023-05-14T02:34:24;95054.88;;;12.23;68.60
23176;BME280;19910;42.652;23.332;2023-05-14T02:36:50;95051.03;;;12.24;68.58
23176;BME280;19910;42.652;23.332;2023-05-14T02:39:17;95050.38;;;12.27;68.20
23176;BME280;19910;42.652;23.332;2023-05-14T02:41:44;95062.03;;;12.27;68.24
23176;BME280;19910;42.652;23.332;2023-05-14T02:44:10;95064.13;;;12.22;68.14
23176;BME280;19910;42.652;23.332;2023-05-14T02:46:39;95070.22;;;12.19;68.08
23176;BME280;19910;42.652;23.332;2023-05-14T02:49:05;95067.97;;;12.21;68.25
23176;BME280;19910;42.652;23.332;2023-05-14T02:51:32;95061.59;;;12.17;68.44
23176;BME280;19910;42.652;23.332;2023-05-14T02:53:59;95070.22;;;12.19;68.85
23176;BME280;19910;42.652;23.332;2023-05-14T02:56:25;95072.47;;;12.17;68.62
23176;BME280;19910;42.652;23.332;2023-05-14T02:58:52;95082.19;;;12.18;69.50
23176;BME280;19910;42.652;23.332;2023-05-14T03:01:19;95069.28;;;12.15;69.36
23176;BME280;19910;42.652;23.332;2023-05-14T03:03:47;95067.69;;;12.14;69.84
23176;BME280;19910;42.652;23.332;2023-05-14T03:06:14;95071.22;;;12.05;70.30
23176;BME280;19910;42.652;23.332;2023-05-14T03:08:41;95069.63;;;12.04;70.09
23176;BME280;19910;42.652;23.332;2023-05-14T03:11:08;95067.13;;;11.99;70.55
23176;BME280;19910;42.652;23.332;2023-05-14T03:13:34;95044.44;;;11.95;70.58
23176;BME280;19910;42.652;23.332;2023-05-14T03:16:01;95046.38;;;11.95;71.01
23176;BME280;19910;42.652;23.332;2023-05-14T03:18:28;95045.09;;;11.92;71.17
23176;BME280;19910;42.652;23.332;2023-05-14T03:20:56;95045.88;;;11.93;71.30
23176;BME280;19910;42.652;23.332;2023-05-14T03:23:23;95058.88;;;11.87;71.87
23176;BME280;19910;42.652;23.332;2023-05-14T03:25:49;95056.47;;;11.77;73.34
23176;BME280;19910;42.652;23.332;2023-05-14T03:28:16;95051.09;;;11.60;73.73
23176;BME280;19910;42.652;23.332;2023-05-14T03:30:43;95048.09;;;11.35;75.77
23176;BME280;19910;42.652;23.332;2023-05-14T03:33:10;95047.34;;;11.18;77.37
23176;BME280;19910;42.652;23.332;2023-05-14T03:35:37;95065.66;;;11.12;78.26
23176;BME280;19910;42.652;23.332;2023-05-14T03:38:05;95071.25;;;11.07;78.15
23176;BME280;19910;42.652;23.332;2023-05-14T03:40:31;95071.25;;;11.07;78.33
23176;BME280;19910;42.652;23.332;2023-05-14T03:42:58;95071.09;;;11.12;78.54
23176;BME280;19910;42.652;23.332;2023-05-14T03:45:25;95064.06;;;11.11;78.80
23176;BME280;19910;42.652;23.332;2023-05-14T03:47:53;95049.88;;;11.14;78.25
23176;BME280;19910;42.652;23.332;2023-05-14T03:50:19;95052.25;;;11.24;78.33
23176;BME280;19910;42.652;23.332;2023-05-14T03:52:49;95061.84;;;11.30;76.98
23176;BME280;19910;42.652;23.332;2023-05-14T03:55:18;95058.94;;;11.35;76.81
23176;BME280;19910;42.652;23.332;2023-05-14T03:57:46;95057.66;;;11.42;76.53
23176;BME280;19910;42.652;23.332;2023-05-14T04:00:13;95066.28;;;11.44;75.93
23176;BME280;19910;42.652;23.332;2023-05-14T04:02:40;95060.06;;;11.43;76.10
23176;BME280;19910;42.652;23.332;2023-05-14T04:05:08;95058.16;;;11.44;75.64
23176;BME280;19910;42.652;23.332;2023-05-14T04:07:34;95065.31;;;11.39;75.97
23176;BME280;19910;42.652;23.332;2023-05-14T04:10:01;95073.94;;;11.42;76.51
23176;BME280;19910;42.652;23.332;2023-05-14T04:12:29;95047.78;;;11.37;76.72
23176;BME280;19910;42.652;23.332;2023-05-14T04:14:57;95059.59;;;11.32;76.25
23176;BME280;19910;42.652;23.332;2023-05-14T04:17:24;95058.78;;;11.40;75.78
23176;BME280;19910;42.652;23.332;2023-05-14T04:19:51;95070.09;;;11.51;75.03
23176;BME280;19910;42.652;23.332;2023-05-14T04:22:17;95068.97;;;11.52;75.22
23176;BME280;19910;42.652;23.332;2023-05-14T04:24:44;95069.28;;;11.51;74.34
23176;BME280;19910;42.652;23.332;2023-05-14T04:27:13;95070.41;;;11.50;74.47
23176;BME280;19910;42.652;23.332;2023-05-14T04:29:41;95072.00;;;11.51;74.10
23176;BME280;19910;42.652;23.332;2023-05-14T04:32:08;95079.03;;;11.52;74.85
23176;BME280;19910;42.652;23.332;2023-05-14T04:34:36;95082.56;;;11.44;74.69
23176;BME280;19910;42.652;23.332;2023-05-14T04:37:03;95095.97;;;11.31;76.63
23176;BME280;19910;42.652;23.332;2023-05-14T04:39:30;95092.63;;;11.17;78.25
23176;BME280;19910;42.652;23.332;2023-05-14T04:41:57;95098.22;;;11.12;79.22
23176;BME280;19910;42.652;23.332;2023-05-14T04:44:23;95096.94;;;11.01;79.59
23176;BME280;19910;42.652;23.332;2023-05-14T04:46:51;95105.22;;;10.96;79.85
23176;BME280;19910;42.652;23.332;2023-05-14T04:49:18;95105.06;;;10.92;81.61
23176;BME280;19910;42.652;23.332;2023-05-14T04:51:46;95104.56;;;10.82;83.38
23176;BME280;19910;42.652;23.332;2023-05-14T04:54:13;95118.91;;;10.82;82.43
23176;BME280;19910;42.652;23.332;2023-05-14T04:56:39;95120.81;;;10.82;82.19
23176;BME280;19910;42.652;23.332;2023-05-14T04:59:06;95120.34;;;10.71;82.41
23176;BME280;19910;42.652;23.332;2023-05-14T05:01:33;95126.22;;;10.64;83.87
23176;BME280;19910;42.652;23.332;2023-05-14T05:04:01;95138.31;;;10.58;84.96
23176;BME280;19910;42.652;23.332;2023-05-14T05:06:28;95136.72;;;10.57;84.43
23176;BME280;19910;42.652;23.332;2023-05-14T05:08:55;95136.53;;;10.45;87.04
23176;BME280;19910;42.652;23.332;2023-05-14T05:11:22;95137.63;;;10.44;87.29
23176;BME280;19910;42.652;23.332;2023-05-14T05:13:49;95146.53;;;10.36;88.03
23176;BME280;19910;42.652;23.332;2023-05-14T05:16:16;95156.50;;;10.27;88.92
23176;BME280;19910;42.652;23.332;2023-05-14T05:18:42;95146.34;;;10.24;89.70
23176;BME280;19910;42.652;23.332;2023-05-14T05:21:11;95157.28;;;10.19;91.41
23176;BME280;19910;42.652;23.332;2023-05-14T05:23:38;95160.09;;;10.14;92.26
23176;BME280;19910;42.652;23.332;2023-05-14T05:26:04;95167.38;;;10.05;92.94
23176;BME280;19910;42.652;23.332;2023-05-14T05:28:31;95154.59;;;9.96;94.90
23176;BME280;19910;42.652;23.332;2023-05-14T05:30:58;95161.25;;;9.90;96.15
23176;BME280;19910;42.652;23.332;2023-05-14T05:33:25;95165.31;;;9.79;98.33
23176;BME280;19910;42.652;23.332;2023-05-14T05:35:51;95172.03;;;9.82;100.00
23176;BME280;19910;42.652;23.332;2023-05-14T05:38:20;95167.03;;;9.75;100.00
23176;BME280;19910;42.652;23.332;2023-05-14T05:40:46;95167.81;;;9.67;100.00
23176;BME280;19910;42.652;23.332;2023-05-14T05:43:13;95173.44;;;9.57;100.00
23176;BME280;19910;42.652;23.332;2023-05-14T05:45:41;95187.69;;;9.49;100.00
23176;BME280;19910;42.652;23.332;2023-05-14T05:48:07;95178.00;;;9.48;100.00
23176;BME280;19910;42.652;23.332;2023-05-14T05:50:34;95190.91;;;9.51;100.00
23176;BME280;19910;42.652;23.332;2023-05-14T05:53:01;95187.19;;;9.47;100.00
23176;BME280;19910;42.652;23.332;2023-05-14T05:55:29;95180.19;;;9.46;100.00
23176;BME280;19910;42.652;23.332;2023-05-14T05:57:56;95190.91;;;9.51;100.00
23176;BME280;19910;42.652;23.332;2023-05-14T06:00:23;95184.31;;;9.43;100.00
23176;BME280;19910;42.652;23.332;2023-05-14T06:02:49;95180.19;;;9.46;100.00
23176;BME280;19910;42.652;23.332;2023-05-14T06:05:16;95182.91;;;9.46;100.00
23176;BME280;19910;42.652;23.332;2023-05-14T06:07:43;95175.47;;;9.51;100.00
23176;BME280;19910;42.652;23.332;2023-05-14T06:10:10;95183.66;;;9.60;100.00
23176;BME280;19910;42.652;23.332;2023-05-14T06:12:38;95173.31;;;9.62;100.00
23176;BME280;19910;42.652;23.332;2023-05-14T06:15:06;95178.72;;;9.62;100.00
23176;BME280;19910;42.652;23.332;2023-05-14T06:17:33;95189.06;;;9.60;100.00
23176;BME280;19910;42.652;23.332;2023-05-14T06:19:59;95173.13;;;9.58;100.00
23176;BME280;19910;42.652;23.332;2023-05-14T06:22:26;95167.25;;;9.56;100.00
23176;BME280;19910;42.652;23.332;2023-05-14T06:24:53;95168.28;;;9.47;100.00
23176;BME280;19910;42.652;23.332;2023-05-14T06:27:20;95170.47;;;9.45;100.00
23176;BME280;19910;42.652;23.332;2023-05-14T06:29:48;95181.13;;;9.41;100.00
23176;BME280;19910;42.652;23.332;2023-05-14T06:32:14;95177.44;;;9.37;100.00
23176;BME280;19910;42.652;23.332;2023-05-14T06:34:42;95182.78;;;9.29;100.00
23176;BME280;19910;42.652;23.332;2023-05-14T06:37:09;95203.50;;;9.19;100.00
23176;BME280;19910;42.652;23.332;2023-05-14T06:39:36;95184.59;;;9.19;100.00
23176;BME280;19910;42.652;23.332;2023-05-14T06:42:03;95182.63;;;9.11;100.00
23176;BME280;19910;42.652;23.332;2023-05-14T06:44:30;95181.03;;;9.10;100.00
23176;BME280;19910;42.652;23.332;2023-05-14T06:46:58;95195.94;;;9.08;100.00
23176;BME280;19910;42.652;23.332;2023-05-14T06:49:25;95183.53;;;9.07;100.00
23176;BME280;19910;42.652;23.332;2023-05-14T06:51:52;95181.53;;;9.12;100.00
23176;BME280;19910;42.652;23.332;2023-05-14T06:54:19;95170.41;;;9.14;100.00
23176;BME280;19910;42.652;23.332;2023-05-14T06:56:45;95167.56;;;9.19;100.00
23176;BME280;19910;42.652;23.332;2023-05-14T06:59:12;95151.56;;;9.22;100.00
23176;BME280;19910;42.652;23.332;2023-05-14T07:01:39;95154.56;;;9.21;100.00
23176;BME280;19910;42.652;23.332;2023-05-14T07:04:07;95162.72;;;9.30;100.00
23176;BME280;19910;42.652;23.332;2023-05-14T07:06:34;95164.81;;;9.33;100.00
23176;BME280;19910;42.652;23.332;2023-05-14T07:09:01;95166.81;;;9.41;100.00
23176;BME280;19910;42.652;23.332;2023-05-14T07:11:28;95162.00;;;9.38;100.00
23176;BME280;19910;42.652;23.332;2023-05-14T07:13:55;95152.66;;;9.44;100.00
23176;BME280;19910;42.652;23.332;2023-05-14T07:16:22;95165.56;;;9.47;100.00
23176;BME280;19910;42.652;23.332;2023-05-14T07:18:48;95183.09;;;9.49;100.00
23176;BME280;19910;42.652;23.332;2023-05-14T07:21:17;95198.63;;;9.44;100.00
23176;BME280;19910;42.652;23.332;2023-05-14T07:23:43;95214.38;;;9.42;100.00
23176;BME280;19910;42.652;23.332;2023-05-14T07:26:10;95192.75;;;9.42;100.00
23176;BME280;19910;42.652;23.332;2023-05-14T07:28:37;95202.56;;;9.38;100.00
23176;BME280;19910;42.652;23.332;2023-05-14T07:31:04;95192.47;;;9.30;100.00
23176;BME280;19910;42.652;23.332;2023-05-14T07:33:33;95188.84;;;9.34;100.00
23176;BME280;19910;42.652;23.332;2023-05-14T07:36:00;95183.59;;;9.29;100.00
23176;BME280;19910;42.652;23.332;2023-05-14T07:38:28;95186.44;;;9.33;100.00
23176;BME280;19910;42.652;23.332;2023-05-14T07:40:55;95185.00;;;9.26;100.00
23176;BME280;19910;42.652;23.332;2023-05-14T07:43:22;95180.94;;;9.38;100.00
23176;BME280;19910;42.652;23.332;2023-05-14T07:45:48;95190.31;;;9.54;100.00
23176;BME280;19910;42.652;23.332;2023-05-14T07:48:15;95198.28;;;9.59;100.00
23176;BME280;19910;42.652;23.332;2023-05-14T07:50:42;95199.50;;;9.53;100.00
23176;BME280;19910;42.652;23.332;2023-05-14T07:53:09;95210.69;;;9.60;100.00
23176;BME280;19910;42.652;23.332;2023-05-14T07:55:37;95217.91;;;9.65;100.00
23176;BME280;19910;42.652;23.332;2023-05-14T07:58:04;95207.75;;;9.70;100.00
23176;BME280;19910;42.652;23.332;2023-05-14T08:00:31;95207.50;;;9.58;100.00
23176;BME280;19910;42.652;23.332;2023-05-14T08:02:58;95211.25;;;9.48;100.00
23176;BME280;19910;42.652;23.332;2023-05-14T08:05:24;95215.13;;;9.56;100.00
23176;BME280;19910;42.652;23.332;2023-05-14T08:07:51;95203.69;;;9.59;100.00
23176;BME280;19910;42.652;23.332;2023-05-14T08:10:18;95207.81;;;9.56;100.00
23176;BME280;19910;42.652;23.332;2023-05-14T08:12:46;95217.69;;;9.61;100.00
23176;BME280;19910;42.652;23.332;2023-05-14T08:15:13;95203.56;;;9.64;100.00
23176;BME280;19910;42.652;23.332;2023-05-14T08:17:40;95201.38;;;9.66;100.00
23176;BME280;19910;42.652;23.332;2023-05-14T08:20:08;95187.22;;;9.69;100.00
23176;BME280;19910;42.652;23.332;2023-05-14T08:22:36;95183.41;;;9.70;100.00
23176;BME280;19910;42.652;23.332;2023-05-14T08:25:03;95174.81;;;9.68;100.00
23176;BME280;19910;42.652;23.332;2023-05-14T08:27:31;95173.94;;;9.81;100.00
23176;BME280;19910;42.652;23.332;2023-05-14T08:29:59;95159.91;;;9.79;100.00
23176;BME280;19910;42.652;23.332;2023-05-14T08:32:25;95186.72;;;9.67;100.00
23176;BME280;19910;42.652;23.332;2023-05-14T08:34:52;95186.59;;;9.72;100.00
23176;BME280;19910;42.652;23.332;2023-05-14T08:37:19;95178.63;;;9.67;100.00
23176;BME280;19910;42.652;23.332;2023-05-14T08:39:46;95170.00;;;9.65;100.00
23176;BME280;19910;42.652;23.332;2023-05-14T08:42:14;95161.94;;;9.74;100.00
23176;BME280;19910;42.652;23.332;2023-05-14T08:44:47;95169.47;;;9.85;100.00
23176;BME280;19910;42.652;23.332;2023-05-14T08:47:17;95160.25;;;9.86;100.00
23176;BME280;19910;42.652;23.332;2023-05-14T08:49:46;95152.81;;;9.92;100.00
23176;BME280;19910;42.652;23.332;2023-05-14T08:52:15;95154.25;;;9.89;100.00
23176;BME280;19910;42.652;23.332;2023-05-14T08:54:44;95163.94;;;9.90;100.00
23176;BME280;19910;42.652;23.332;2023-05-14T08:57:13;95157.56;;;9.86;100.00
23176;BME280;19910;42.652;23.332;2023-05-14T08:59:40;95157.56;;;9.86;100.00
23176;BME280;19910;42.652;23.332;2023-05-14T09:02:08;95149.81;;;9.93;100.00
23176;BME280;19910;42.652;23.332;2023-05-14T09:04:40;95143.13;;;9.99;100.00
23176;BME280;19910;42.652;23.332;2023-05-14T09:07:07;95152.22;;;9.95;100.00
23176;BME280;19910;42.652;23.332;2023-05-14T09:09:34;95143.69;;;10.10;100.00
23176;BME280;19910;42.652;23.332;2023-05-14T09:12:02;95148.25;;;10.23;100.00
23176;BME280;19910;42.652;23.332;2023-05-14T09:14:29;95149.38;;;10.31;100.00
23176;BME280;19910;42.652;23.332;2023-05-14T09:16:55;95138.25;;;10.41;100.00
23176;BME280;19910;42.652;23.332;2023-05-14T09:19:22;95141.44;;;10.43;100.00
23176;BME280;19910;42.652;23.332;2023-05-14T09:21:51;95153.69;;;10.41;100.00
23176;BME280;19910;42.652;23.332;2023-05-14T09:24:18;95165.63;;;10.40;100.00
23176;BME280;19910;42.652;23.332;2023-05-14T09:26:49;95162.72;;;10.27;100.00
23176;BME280;19910;42.652;23.332;2023-05-14T09:29:16;95149.56;;;10.35;100.00
23176;BME280;19910;42.652;23.332;2023-05-14T09:31:43;95134.50;;;10.59;100.00
23176;BME280;19910;42.652;23.332;2023-05-14T09:34:09;95134.09;;;10.35;100.00
23176;BME280;19910;42.652;23.332;2023-05-14T09:36:36;95141.31;;;10.48;100.00
23176;BME280;19910;42.652;23.332;2023-05-14T09:39:05;95149.25;;;10.45;100.00
23176;BME280;19910;42.652;23.332;2023-05-14T09:41:32;95134.44;;;10.42;100.00
23176;BME280;19910;42.652;23.332;2023-05-14T09:43:59;95129.19;;;10.46;100.00
23176;BME280;19910;42.652;23.332;2023-05-14T09:46:26;95120.41;;;10.40;100.00
23176;BME280;19910;42.652;23.332;2023-05-14T09:48:55;95116.59;;;10.41;100.00
23176;BME280;19910;42.652;23.332;2023-05-14T09:51:23;95117.84;;;10.35;100.00
23176;BME280;19910;42.652;23.332;2023-05-14T09:53:51;95115.47;;;10.42;100.00
23176;BME280;19910;42.652;23.332;2023-05-14T09:56:20;95116.06;;;10.30;100.00
23176;BME280;19910;42.652;23.332;2023-05-14T09:58:47;95116.88;;;10.31;100.00
23176;BME280;19910;42.652;23.332;2023-05-14T10:01:17;95116.75;;;10.45;100.00
23176;BME280;19910;42.652;23.332;2023-05-14T10:03:44;95113.06;;;10.32;100.00
23176;BME280;19910;42.652;23.332;2023-05-14T10:06:12;95094.28;;;10.36;100.00
23176;BME280;19910;42.652;23.332;2023-05-14T10:08:43;95095.41;;;10.35;100.00
23176;BME280;19910;42.652;23.332;2023-05-14T10:11:14;95091.69;;;10.22;100.00
23176;BME280;19910;42.652;23.332;2023-05-14T10:13:47;95097.09;;;10.22;100.00
23176;BME280;19910;42.652;23.332;2023-05-14T10:16:21;95089.47;;;10.24;100.00
23176;BME280;19910;42.652;23.332;2023-05-14T10:18:51;95072.03;;;10.16;100.00
23176;BME280;19910;42.652;23.332;2023-05-14T10:21:22;95071.53;;;10.06;100.00
23176;BME280;19910;42.652;23.332;2023-05-14T10:23:50;95069.13;;;10.04;100.00
23176;BME280;19910;42.652;23.332;2023-05-14T10:26:17;95072.03;;;10.08;100.00
23176;BME280;19910;42.652;23.332;2023-05-14T10:28:46;95083.34;;;10.10;100.00
23176;BME280;19910;42.652;23.332;2023-05-14T10:31:13;95098.47;;;10.11;100.00
23176;BME280;19910;42.652;23.332;2023-05-14T10:33:45;95089.63;;;10.27;100.00
23176;BME280;19910;42.652;23.332;2023-05-14T10:36:14;95097.44;;;10.29;100.00
23176;BME280;19910;42.652;23.332;2023-05-14T10:38:41;95091.72;;;10.30;100.00
23176;BME280;19910;42.652;23.332;2023-05-14T10:41:10;95085.97;;;10.32;100.00
23176;BME280;19910;42.652;23.332;2023-05-14T10:43:38;95075.16;;;10.32;100.00
23176;BME280;19910;42.652;23.332;2023-05-14T10:46:08;95083.75;;;10.34;100.00
23176;BME280;19910;42.652;23.332;2023-05-14T10:48:38;95081.69;;;10.31;100.00
23176;BME280;19910;42.652;23.332;2023-05-14T10:51:08;95085.06;;;10.37;100.00
23176;BME280;19910;42.652;23.332;2023-05-14T10:53:37;95084.47;;;10.65;100.00
23176;BME280;19910;42.652;23.332;2023-05-14T10:56:05;95073.16;;;10.63;100.00
23176;BME280;19910;42.652;23.332;2023-05-14T10:58:35;95084.94;;;10.59;100.00
23176;BME280;19910;42.652;23.332;2023-05-14T11:01:03;95065.03;;;10.63;100.00
23176;BME280;19910;42.652;23.332;2023-05-14T11:03:38;95055.75;;;10.56;100.00
23176;BME280;19910;42.652;23.332;2023-05-14T11:06:06;95062.94;;;10.69;100.00
23176;BME280;19910;42.652;23.332;2023-05-14T11:08:33;95063.44;;;10.80;100.00
23176;BME280;19910;42.652;23.332;2023-05-14T11:11:01;95070.75;;;10.71;100.00
23176;BME280;19910;42.652;23.332;2023-05-14T11:13:28;95074.25;;;10.62;100.00
23176;BME280;19910;42.652;23.332;2023-05-14T11:15:55;95065.69;;;10.78;100.00
23176;BME280;19910;42.652;23.332;2023-05-14T11:18:26;95065.69;;;10.78;100.00
23176;BME280;19910;42.652;23.332;2023-05-14T11:20:58;95073.00;;;10.86;100.00
23176;BME280;19910;42.652;23.332;2023-05-14T11:23:25;95076.69;;;10.90;100.00
23176;BME280;19910;42.652;23.332;2023-05-14T11:25:53;95071.09;;;10.95;100.00
23176;BME280;19910;42.652;23.332;2023-05-14T11:28:21;95067.25;;;10.96;100.00
23176;BME280;19910;42.652;23.332;2023-05-14T11:30:48;95068.22;;;11.00;100.00
23176;BME280;19910;42.652;23.332;2023-05-14T11:33:15;95057.09;;;10.93;100.00
23176;BME280;19910;42.652;23.332;2023-05-14T11:35:42;95066.31;;;11.26;100.00
23176;BME280;19910;42.652;23.332;2023-05-14T11:38:15;95071.09;;;11.29;100.00
23176;BME280;19910;42.652;23.332;2023-05-14T11:40:49;95086.69;;;11.50;100.00
23176;BME280;19910;42.652;23.332;2023-05-14T11:43:17;95074.56;;;11.38;100.00
23176;BME280;19910;42.652;23.332;2023-05-14T11:45:48;95059.34;;;11.81;100.00
23176;BME280;19910;42.652;23.332;2023-05-14T11:48:15;95062.97;;;11.93;100.00
23176;BME280;19910;42.652;23.332;2023-05-14T11:50:44;95056.91;;;11.96;98.68
23176;BME280;19910;42.652;23.332;2023-05-14T11:53:16;95066.09;;;12.13;98.49
23176;BME280;19910;42.652;23.332;2023-05-14T11:55:44;95060.22;;;12.40;95.03
23176;BME280;19910;42.652;23.332;2023-05-14T11:58:11;95044.94;;;12.27;93.86
23176;BME280;19910;42.652;23.332;2023-05-14T12:00:40;95048.31;;;12.53;97.05
23176;BME280;19910;42.652;23.332;2023-05-14T12:03:08;95041.03;;;13.07;95.84
23176;BME280;19910;42.652;23.332;2023-05-14T12:05:36;95039.84;;;12.75;91.76
23176;BME280;19910;42.652;23.332;2023-05-14T12:08:19;95037.06;;;13.05;91.44
23176;BME280;19910;42.652;23.332;2023-05-14T12:10:46;95033.22;;;13.06;91.41
23176;BME280;19910;42.652;23.332;2023-05-14T12:13:14;95028.84;;;12.93;90.17
23176;BME280;19910;42.652;23.332;2023-05-14T12:15:44;95020.94;;;13.00;89.11
23176;BME280;19910;42.652;23.332;2023-05-14T12:18:11;95007.34;;;13.00;91.54
23176;BME280;19910;42.652;23.332;2023-05-14T12:20:38;95000.97;;;13.16;89.14
23176;BME280;19910;42.652;23.332;2023-05-14T12:23:09;95004.41;;;13.05;88.93
23176;BME280;19910;42.652;23.332;2023-05-14T12:25:38;94999.81;;;12.85;90.48
23176;BME280;19910;42.652;23.332;2023-05-14T12:28:13;94996.22;;;12.93;90.50
23176;BME280;19910;42.652;23.332;2023-05-14T12:30:40;94985.72;;;13.24;91.13
23176;BME280;19910;42.652;23.332;2023-05-14T12:33:06;94986.75;;;13.32;87.69
23176;BME280;19910;42.652;23.332;2023-05-14T12:35:33;94982.53;;;13.22;88.95
23176;BME280;19910;42.652;23.332;2023-05-14T12:38:01;94992.88;;;13.08;88.47
23176;BME280;19910;42.652;23.332;2023-05-14T12:40:27;94981.06;;;13.04;89.45
23176;BME280;19910;42.652;23.332;2023-05-14T12:42:56;94977.09;;;13.22;89.48
23176;BME280;19910;42.652;23.332;2023-05-14T12:45:22;94971.00;;;13.25;89.22
23176;BME280;19910;42.652;23.332;2023-05-14T12:47:49;94973.44;;;13.18;89.76
23176;BME280;19910;42.652;23.332;2023-05-14T12:50:16;94978.94;;;13.09;90.22